sensor_id;sensor_type;location;lat;lon;timestamp;P1;durP1;ratioP1;P2;durP2;ratioP2
63959;SDS011;50136;51.374;0.096;2023-09-19T00:09:42;11.43;;;2.20;;
63959;SDS011;50136;51.374;0.096;2023-09-19T00:19:46;13.50;;;2.40;;
63959;SDS011;50136;51.374;0.096;2023-09-19T00:29:48;19.27;;;4.35;;
63959;SDS011;50136;51.374;0.096;2023-09-19T00:39:51;15.95;;;2.67;;
63959;SDS011;50136;51.374;0.096;2023-09-19T00:49:53;10.93;;;2.50;;
63959;SDS011;50136;51.374;0.096;2023-09-19T00:59:56;15.75;;;3.30;;
63959;SDS011;50136;51.374;0.096;2023-09-19T01:09:58;16.15;;;3.55;;
63959;SDS011;50136;51.374;0.096;2023-09-19T01:30:32;22.38;;;3.88;;
63959;SDS011;50136;51.374;0.096;2023-09-19T01:40:38;13.23;;;3.20;;
63959;SDS011;50136;51.374;0.096;2023-09-19T01:50:47;15.88;;;2.88;;
63959;SDS011;50136;51.374;0.096;2023-09-19T02:00:56;17.38;;;3.70;;
63959;SDS011;50136;51.374;0.096;2023-09-19T02:11:02;12.80;;;3.67;;
63959;SDS011;50136;51.374;0.096;2023-09-19T02:21:04;11.98;;;2.95;;
63959;SDS011;50136;51.374;0.096;2023-09-19T02:31:08;18.33;;;3.38;;
63959;SDS011;50136;51.374;0.096;2023-09-19T02:41:10;16.13;;;2.97;;
63959;SDS011;50136;51.374;0.096;2023-09-19T02:51:13;18.85;;;5.20;;
63959;SDS011;50136;51.374;0.096;2023-09-19T03:01:15;14.32;;;3.28;;
63959;SDS011;50136;51.374;0.096;2023-09-19T03:11:19;15.70;;;3.42;;
63959;SDS011;50136;51.374;0.096;2023-09-19T03:21:23;17.00;;;4.78;;
63959;SDS011;50136;51.374;0.096;2023-09-19T03:31:27;11.95;;;2.65;;
63959;SDS011;50136;51.374;0.096;2023-09-19T03:41:30;16.60;;;3.10;;
63959;SDS011;50136;51.374;0.096;2023-09-19T03:51:33;9.68;;;3.22;;
63959;SDS011;50136;51.374;0.096;2023-09-19T04:01:35;22.55;;;3.85;;
63959;SDS011;50136;51.374;0.096;2023-09-19T04:11:39;19.40;;;3.42;;
63959;SDS011;50136;51.374;0.096;2023-09-19T04:21:41;15.25;;;3.30;;
63959;SDS011;50136;51.374;0.096;2023-09-19T04:31:44;10.52;;;3.00;;
63959;SDS011;50136;51.374;0.096;2023-09-19T04:41:46;11.27;;;2.70;;
63959;SDS011;50136;51.374;0.096;2023-09-19T04:51:49;13.55;;;3.35;;
63959;SDS011;50136;51.374;0.096;2023-09-19T05:01:51;13.70;;;3.03;;
63959;SDS011;50136;51.374;0.096;2023-09-19T05:11:55;16.27;;;2.45;;
63959;SDS011;50136;51.374;0.096;2023-09-19T05:21:57;16.13;;;3.67;;
63959;SDS011;50136;51.374;0.096;2023-09-19T05:32:00;17.23;;;3.53;;
63959;SDS011;50136;51.374;0.096;2023-09-19T05:42:03;13.90;;;3.65;;
63959;SDS011;50136;51.374;0.096;2023-09-19T05:52:06;15.20;;;3.03;;
63959;SDS011;50136;51.374;0.096;2023-09-19T06:02:09;21.48;;;4.85;;
63959;SDS011;50136;51.374;0.096;2023-09-19T06:12:12;17.95;;;3.05;;
63959;SDS011;50136;51.374;0.096;2023-09-19T06:22:15;12.95;;;2.88;;
63959;SDS011;50136;51.374;0.096;2023-09-19T06:32:18;8.35;;;1.85;;
63959;SDS011;50136;51.374;0.096;2023-09-19T06:42:20;7.88;;;2.20;;
63959;SDS011;50136;51.374;0.096;2023-09-19T06:52:24;11.40;;;2.10;;
63959;SDS011;50136;51.374;0.096;2023-09-19T07:02:26;6.63;;;1.92;;
63959;SDS011;50136;51.374;0.096;2023-09-19T07:12:29;13.88;;;3.03;;
63959;SDS011;50136;51.374;0.096;2023-09-19T07:22:31;9.45;;;2.35;;
63959;SDS011;50136;51.374;0.096;2023-09-19T07:32:35;5.10;;;1.70;;
63959;SDS011;50136;51.374;0.096;2023-09-19T07:42:37;10.50;;;2.72;;
63959;SDS011;50136;51.374;0.096;2023-09-19T07:52:40;12.13;;;3.28;;
63959;SDS011;50136;51.374;0.096;2023-09-19T08:02:43;14.95;;;3.25;;
63959;SDS011;50136;51.374;0.096;2023-09-19T08:12:48;17.88;;;3.00;;
63959;SDS011;50136;51.374;0.096;2023-09-19T08:22:51;22.20;;;4.10;;
63959;SDS011;50136;51.374;0.096;2023-09-19T08:32:58;14.68;;;3.95;;
63959;SDS011;50136;51.374;0.096;2023-09-19T08:43:00;23.40;;;5.07;;
63959;SDS011;50136;51.374;0.096;2023-09-19T08:53:05;13.30;;;4.47;;
63959;SDS011;50136;51.374;0.096;2023-09-19T09:03:12;25.77;;;6.80;;
63959;SDS011;50136;51.374;0.096;2023-09-19T09:13:17;22.42;;;6.13;;
63959;SDS011;50136;51.374;0.096;2023-09-19T09:23:19;21.70;;;5.88;;
63959;SDS011;50136;51.374;0.096;2023-09-19T09:33:22;22.85;;;6.53;;
63959;SDS011;50136;51.374;0.096;2023-09-19T09:43:29;24.52;;;5.22;;
63959;SDS011;50136;51.374;0.096;2023-09-19T09:53:42;22.92;;;5.50;;
63959;SDS011;50136;51.374;0.096;2023-09-19T10:03:45;31.77;;;7.55;;
63959;SDS011;50136;51.374;0.096;2023-09-19T10:13:49;13.70;;;5.40;;
63959;SDS011;50136;51.374;0.096;2023-09-19T10:23:51;28.58;;;9.52;;
63959;SDS011;50136;51.374;0.096;2023-09-19T10:33:56;30.42;;;6.22;;
63959;SDS011;50136;51.374;0.096;2023-09-19T10:43:59;27.38;;;6.75;;
63959;SDS011;50136;51.374;0.096;2023-09-19T10:54:07;22.30;;;6.18;;
63959;SDS011;50136;51.374;0.096;2023-09-19T11:04:22;23.42;;;6.57;;
63959;SDS011;50136;51.374;0.096;2023-09-19T11:24:46;17.75;;;4.65;;
63959;SDS011;50136;51.374;0.096;2023-09-19T11:34:50;19.90;;;6.63;;
63959;SDS011;50136;51.374;0.096;2023-09-19T11:44:52;18.17;;;5.43;;
63959;SDS011;50136;51.374;0.096;2023-09-19T11:54:56;21.42;;;4.72;;
63959;SDS011;50136;51.374;0.096;2023-09-19T12:04:58;18.60;;;6.22;;
63959;SDS011;50136;51.374;0.096;2023-09-19T12:15:02;13.63;;;5.65;;
63959;SDS011;50136;51.374;0.096;2023-09-19T12:25:05;15.70;;;4.03;;
63959;SDS011;50136;51.374;0.096;2023-09-19T12:35:09;16.85;;;4.85;;
63959;SDS011;50136;51.374;0.096;2023-09-19T12:45:11;10.38;;;3.92;;
63959;SDS011;50136;51.374;0.096;2023-09-19T13:06:00;19.20;;;5.03;;
63959;SDS011;50136;51.374;0.096;2023-09-19T13:16:04;19.88;;;3.97;;
63959;SDS011;50136;51.374;0.096;2023-09-19T13:26:06;10.88;;;4.13;;
63959;SDS011;50136;51.374;0.096;2023-09-19T13:36:09;12.18;;;3.97;;
63959;SDS011;50136;51.374;0.096;2023-09-19T13:46:11;23.52;;;6.78;;
63959;SDS011;50136;51.374;0.096;2023-09-19T13:56:15;9.82;;;3.38;;
63959;SDS011;50136;51.374;0.096;2023-09-19T14:06:17;19.58;;;4.65;;
63959;SDS011;50136;51.374;0.096;2023-09-19T14:16:20;12.55;;;4.45;;
63959;SDS011;50136;51.374;0.096;2023-09-19T14:26:22;6.90;;;2.63;;
63959;SDS011;50136;51.374;0.096;2023-09-19T14:36:26;13.77;;;3.30;;
63959;SDS011;50136;51.374;0.096;2023-09-19T14:46:28;9.90;;;3.30;;
63959;SDS011;50136;51.374;0.096;2023-09-19T14:56:31;13.20;;;2.97;;
63959;SDS011;50136;51.374;0.096;2023-09-19T15:06:33;9.65;;;2.90;;
63959;SDS011;50136;51.374;0.096;2023-09-19T15:16:36;13.48;;;3.28;;
63959;SDS011;50136;51.374;0.096;2023-09-19T15:26:39;10.30;;;3.30;;
63959;SDS011;50136;51.374;0.096;2023-09-19T15:36:42;7.93;;;2.50;;
63959;SDS011;50136;51.374;0.096;2023-09-19T15:46:45;10.13;;;3.10;;
63959;SDS011;50136;51.374;0.096;2023-09-19T15:56:49;12.45;;;3.78;;
63959;SDS011;50136;51.374;0.096;2023-09-19T16:06:50;15.20;;;3.30;;
63959;SDS011;50136;51.374;0.096;2023-09-19T16:16:54;21.02;;;4.55;;
63959;SDS011;50136;51.374;0.096;2023-09-19T16:26:56;14.05;;;3.50;;
63959;SDS011;50136;51.374;0.096;2023-09-19T16:37:01;20.55;;;5.50;;
63959;SDS011;50136;51.374;0.096;2023-09-19T16:47:04;24.90;;;6.28;;
63959;SDS011;50136;51.374;0.096;2023-09-19T16:57:08;16.02;;;4.88;;
63959;SDS011;50136;51.374;0.096;2023-09-19T17:07:09;17.98;;;5.38;;
63959;SDS011;50136;51.374;0.096;2023-09-19T17:17:13;25.10;;;6.35;;
63959;SDS011;50136;51.374;0.096;2023-09-19T17:27:15;15.73;;;5.43;;
63959;SDS011;50136;51.374;0.096;2023-09-19T17:37:18;14.63;;;4.25;;
63959;SDS011;50136;51.374;0.096;2023-09-19T17:47:20;11.55;;;4.10;;
63959;SDS011;50136;51.374;0.096;2023-09-19T17:57:24;15.15;;;4.72;;
63959;SDS011;50136;51.374;0.096;2023-09-19T18:07:26;14.52;;;3.92;;
63959;SDS011;50136;51.374;0.096;2023-09-19T18:17:29;14.95;;;3.97;;
63959;SDS011;50136;51.374;0.096;2023-09-19T18:27:35;17.70;;;3.58;;
63959;SDS011;50136;51.374;0.096;2023-09-19T18:37:44;11.13;;;3.63;;
63959;SDS011;50136;51.374;0.096;2023-09-19T18:47:53;19.40;;;4.43;;
63959;SDS011;50136;51.374;0.096;2023-09-19T18:57:59;18.83;;;3.50;;
63959;SDS011;50136;51.374;0.096;2023-09-19T19:08:07;9.85;;;2.88;;
63959;SDS011;50136;51.374;0.096;2023-09-19T19:18:16;10.45;;;3.40;;
63959;SDS011;50136;51.374;0.096;2023-09-19T19:28:51;12.88;;;3.45;;
63959;SDS011;50136;51.374;0.096;2023-09-19T19:38:54;9.35;;;3.17;;
63959;SDS011;50136;51.374;0.096;2023-09-19T19:48:56;8.20;;;2.70;;
63959;SDS011;50136;51.374;0.096;2023-09-19T19:59:02;9.27;;;2.83;;
63959;SDS011;50136;51.374;0.096;2023-09-19T20:09:04;11.57;;;2.90;;
63959;SDS011;50136;51.374;0.096;2023-09-19T20:19:08;12.80;;;2.65;;
63959;SDS011;50136;51.374;0.096;2023-09-19T20:29:12;14.35;;;3.83;;
63959;SDS011;50136;51.374;0.096;2023-09-19T20:39:16;12.18;;;5.45;;
63959;SDS011;50136;51.374;0.096;2023-09-19T21:11:30;10.13;;;2.97;;
63959;SDS011;50136;51.374;0.096;2023-09-19T21:21:34;13.07;;;2.78;;
63959;SDS011;50136;51.374;0.096;2023-09-19T21:31:37;13.40;;;3.25;;
63959;SDS011;50136;51.374;0.096;2023-09-19T21:41:39;10.35;;;2.47;;
63959;SDS011;50136;51.374;0.096;2023-09-19T21:51:43;11.48;;;3.45;;
63959;SDS011;50136;51.374;0.096;2023-09-19T22:01:45;14.32;;;3.10;;
63959;SDS011;50136;51.374;0.096;2023-09-19T22:11:48;19.70;;;3.83;;
63959;SDS011;50136;51.374;0.096;2023-09-19T22:21:50;9.05;;;2.90;;
63959;SDS011;50136;51.374;0.096;2023-09-19T22:31:54;12.10;;;2.72;;
63959;SDS011;50136;51.374;0.096;2023-09-19T22:41:56;8.98;;;2.45;;
63959;SDS011;50136;51.374;0.096;2023-09-19T22:51:59;10.43;;;2.65;;
63959;SDS011;50136;51.374;0.096;2023-09-19T23:02:01;12.55;;;2.60;;
63959;SDS011;50136;51.374;0.096;2023-09-19T23:12:05;8.23;;;2.58;;
63959;SDS011;50136;51.374;0.096;2023-09-19T23:22:08;10.18;;;2.95;;
63959;SDS011;50136;51.374;0.096;2023-09-19T23:32:11;10.65;;;3.53;;
63959;SDS011;50136;51.374;0.096;2023-09-19T23:42:13;12.73;;;3.10;;
63959;SDS011;50136;51.374;0.096;2023-09-19T23:52:16;15.23;;;2.88;;
